Time;durP1;ratioP1;P1;durP2;ratioP2;P2;SDS_P1;SDS_P2;PMS_P1;PMS_P2;Temp;Humidity;BMP_temperature;BMP_pressure;BME280_temperature;BME280_humidity;BME280_pressure;Samples;Min_cycle;Max_cycle;Signal;HPM_P1;HPM_P2
2022/03/04 00:03:15;;;;;;;40.95;20.80;;;;;;;4.03;36.34;99678.63;7685258;32;39898;-73
2022/03/04 00:07:31;;;;;;;34.95;20.52;;;;;;;3.99;37.22;99680.16;7684936;32;40893;-73
2022/03/04 00:11:50;;;;;;;37.80;20.95;;;;;;;3.97;37.67;99676.03;7684872;32;37911;-73
2022/03/04 00:16:07;;;;;;;40.17;21.35;;;;;;;4.07;38.13;99669.06;7684824;32;38391;-72
2022/03/04 00:20:23;;;;;;;37.17;19.83;;;;;;;3.78;38.83;99669.91;7701248;32;40193;-72
2022/03/04 00:24:40;;;;;;;38.25;20.20;;;;;;;3.87;37.98;99672.03;7697744;32;39864;-72
2022/03/04 00:28:56;;;;;;;32.13;17.55;;;;;;;4.07;36.69;99677.16;7711279;32;37956;-72
2022/03/04 00:33:12;;;;;;;40.78;18.90;;;;;;;4.00;37.43;99671.03;7711441;32;37908;-72
2022/03/04 00:37:28;;;;;;;47.03;24.35;;;;;;;4.09;37.54;99664.22;7710837;32;40674;-72
2022/03/04 00:41:45;;;;;;;38.03;20.75;;;;;;;3.82;37.27;99661.12;7711212;32;39650;-72
2022/03/04 00:46:01;;;;;;;33.58;17.98;;;;;;;3.61;37.91;99672.44;7711036;32;38452;-73
2022/03/04 00:50:17;;;;;;;41.03;20.65;;;;;;;3.78;36.37;99672.59;7693065;32;35801;-72
2022/03/04 00:54:33;;;;;;;43.35;20.20;;;;;;;3.58;36.55;99666.44;7684372;32;39495;-72
2022/03/04 00:58:49;;;;;;;39.42;18.90;;;;;;;3.64;36.27;99662.03;7684208;32;40724;-72
2022/03/04 01:03:05;;;;;;;37.90;20.30;;;;;;;3.72;36.97;99664.38;7684203;32;38305;-72
2022/03/04 01:07:21;;;;;;;37.28;19.92;;;;;;;3.72;36.76;99652.78;7684207;32;38308;-72
2022/03/04 01:11:38;;;;;;;36.17;19.70;;;;;;;3.69;36.28;99648.66;7684142;32;40079;-73
2022/03/04 01:15:55;;;;;;;38.17;19.77;;;;;;;3.82;36.18;99644.94;7683895;32;40851;-73
2022/03/04 01:20:11;;;;;;;35.72;18.50;;;;;;;3.96;35.96;99645.56;7699648;32;38140;-73
2022/03/04 01:24:27;;;;;;;38.47;18.77;;;;;;;4.09;35.69;99637.25;7710459;32;37224;-72
2022/03/04 01:28:43;;;;;;;37.80;19.98;;;;;;;4.04;35.48;99641.72;7710372;32;40035;-73
2022/03/04 01:32:59;;;;;;;37.28;19.52;;;;;;;3.89;36.22;99636.75;7710246;32;39887;-72
2022/03/04 01:37:16;;;;;;;40.90;18.30;;;;;;;3.58;37.85;99642.16;7710141;32;38006;-72
2022/03/04 01:41:32;;;;;;;35.08;19.02;;;;;;;3.98;38.32;99635.34;7710092;32;37331;-72
2022/03/04 01:45:48;;;;;;;38.10;19.52;;;;;;;4.17;41.76;99637.97;7695933;32;40251;-72
2022/03/04 01:50:05;;;;;;;37.88;19.12;;;;;;;4.02;41.46;99624.91;7700135;32;40716;-72
2022/03/04 01:54:21;;;;;;;41.33;19.67;;;;;;;3.89;41.64;99625.97;7713101;32;37893;-72
2022/03/04 01:58:37;;;;;;;38.67;20.20;;;;;;;4.01;41.19;99624.09;7713055;32;37165;-72
2022/03/04 02:02:57;;;;;;;37.00;20.70;;;;;;;4.04;40.88;99633.63;7713064;32;39360;-72
2022/03/04 02:07:14;;;;;;;42.22;18.70;;;;;;;3.99;41.07;99628.91;7713042;32;40870;-71
2022/03/04 02:11:30;;;;;;;35.78;18.90;;;;;;;3.94;41.48;99626.09;7712932;32;37920;-72
2022/03/04 02:15:46;;;;;;;35.50;18.77;;;;;;;3.87;41.93;99622.69;7712883;32;38172;-72
2022/03/04 02:20:05;;;;;;;35.53;18.12;;;;;;;3.66;42.46;99624.88;7696636;32;39800;-72
2022/03/04 02:24:22;;;;;;;32.75;16.60;;;;;;;3.68;41.87;99619.25;7686864;32;40136;-72
2022/03/04 02:28:38;;;;;;;31.45;15.20;;;;;;;3.78;40.61;99624.91;7685946;32;37833;-72
2022/03/04 02:32:55;;;;;;;29.12;14.65;;;;;;;3.84;39.83;99623.94;7686210;32;37327;-72
2022/03/04 02:37:11;;;;;;;40.80;15.70;;;;;;;4.01;39.81;99623.28;7685972;32;39507;-72
2022/03/04 02:41:27;;;;;;;27.67;14.82;;;;;;;3.92;40.16;99615.53;7685902;32;39859;-72
2022/03/04 02:45:43;;;;;;;28.87;15.55;;;;;;;4.07;41.72;99622.34;7686561;32;38597;-72
2022/03/04 02:49:59;;;;;;;36.30;16.58;;;;;;;3.66;41.31;99626.75;7701593;32;37958;-72
2022/03/04 02:54:15;;;;;;;29.73;16.30;;;;;;;3.64;41.14;99632.38;7712504;32;39291;-73
2022/03/04 02:58:32;;;;;;;28.10;16.33;;;;;;;3.57;41.86;99640.53;7685822;32;40846;-72
2022/03/04 03:02:49;;;;;;;36.40;17.17;;;;;;;3.83;40.97;99645.75;7685655;32;37733;-72
2022/03/04 03:07:05;;;;;;;29.55;16.65;;;;;;;3.57;41.17;99650.50;7691581;32;37181;-72
2022/03/04 03:11:21;;;;;;;28.92;15.43;;;;;;;3.73;41.40;99654.44;7712194;32;40101;-72
2022/03/04 03:15:37;;;;;;;32.22;16.37;;;;;;;4.03;41.82;99648.97;7704831;32;39935;-72
2022/03/04 03:19:54;;;;;;;31.85;16.45;;;;;;;3.93;43.72;99656.81;7698826;32;38238;-71
2022/03/04 03:24:10;;;;;;;28.75;15.73;;;;;;;4.01;45.07;99661.06;7685531;32;37320;-72
2022/03/04 03:28:26;;;;;;;29.73;15.60;;;;;;;4.09;44.96;99658.03;7688477;32;40248;-72
2022/03/04 03:32:42;;;;;;;30.15;16.20;;;;;;;4.05;45.14;99663.06;7712033;32;40812;-71
2022/03/04 03:36:58;;;;;;;27.40;15.52;;;;;;;4.05;45.23;99668.47;7700609;32;37833;-72
2022/03/04 03:41:15;;;;;;;29.15;15.43;;;;;;;4.04;44.81;99668.69;7685371;32;37151;-72
2022/03/04 03:45:31;;;;;;;29.83;16.92;;;;;;;4.12;43.92;99668.34;7685291;32;39158;-71
2022/03/04 03:49:47;;;;;;;33.55;16.90;;;;;;;4.11;42.71;99680.19;7686556;32;40542;-72
2022/03/04 03:54:03;;;;;;;34.35;17.42;;;;;;;3.80;43.29;99682.09;7705525;32;37868;-72
2022/03/04 03:58:19;;;;;;;33.25;17.87;;;;;;;3.84;43.25;99687.87;7685017;32;38160;-73
2022/03/04 04:02:35;;;;;;;29.50;17.95;;;;;;;3.89;43.03;99679.91;7685213;32;40040;-73
2022/03/04 04:06:51;;;;;;;36.85;19.80;;;;;;;3.88;43.65;99689.88;7685023;32;40716;-73
2022/03/04 04:11:08;;;;;;;32.75;17.60;;;;;;;3.80;44.39;99692.91;7684439;32;37946;-72
2022/03/04 04:15:24;;;;;;;31.98;17.33;;;;;;;3.55;45.18;99711.91;7701669;32;37320;-72
2022/03/04 04:19:40;;;;;;;32.40;16.85;;;;;;;3.56;45.17;99708.16;7696264;32;40121;-71
2022/03/04 04:23:56;;;;;;;35.92;19.30;;;;;;;3.31;45.32;99717.19;7684921;32;40938;-72
2022/03/04 04:28:12;;;;;;;34.15;18.10;;;;;;;3.46;44.48;99710.56;7684718;32;37868;-72
2022/03/04 04:32:28;;;;;;;39.30;22.77;;;;;;;3.47;44.13;99717.63;7684917;32;37134;-72
2022/03/04 04:36:44;;;;;;;43.75;23.65;;;;;;;3.42;43.16;99720.16;7700541;32;40032;-72
2022/03/04 04:41:00;;;;;;;48.45;24.27;;;;;;;3.39;42.60;99726.81;7711463;32;40181;-72
2022/03/04 04:45:17;;;;;;;47.55;24.17;;;;;;;3.14;43.38;99734.97;7693512;32;38605;-72
2022/03/04 04:49:37;;;;;;;45.38;25.08;;;;;;;3.18;42.76;99733.50;7698847;32;37057;-73
2022/03/04 04:53:53;;;;;;;40.72;23.65;;;;;;;3.06;42.92;99741.50;7697451;32;39998;-73
2022/03/04 04:58:10;;;;;;;44.53;23.27;;;;;;;3.16;42.27;99741.00;7706051;32;40760;-72
2022/03/04 05:02:26;;;;;;;49.45;25.08;;;;;;;3.17;42.07;99742.63;7684319;32;38510;-72
2022/03/04 05:06:43;;;;;;;52.40;25.15;;;;;;;3.11;42.20;99741.66;7684321;32;36992;-72
2022/03/04 05:11:00;;;;;;;49.75;23.92;;;;;;;2.90;42.20;99747.44;7684210;32;39513;-73
2022/03/04 05:15:16;;;;;;;45.10;24.67;;;;;;;2.92;42.28;99756.97;7701460;32;40657;-72
2022/03/04 05:19:32;;;;;;;46.58;23.87;;;;;;;3.04;41.82;99758.94;7697192;32;38594;-72
2022/03/04 05:24:00;;;;;;;46.92;25.92;;;;;;;3.00;41.84;99764.78;7709237;32;37465;-72
2022/03/04 05:28:16;;;;;;;51.50;24.77;;;;;;;2.97;42.50;99769.78;7710636;32;39255;-72
2022/03/04 05:32:33;;;;;;;45.12;24.65;;;;;;;3.03;42.55;99768.06;7710339;32;40723;-73
2022/03/04 05:36:49;;;;;;;52.35;26.00;;;;;;;3.30;41.83;99772.13;7705749;32;37688;-73
2022/03/04 05:41:05;;;;;;;45.65;24.10;;;;;;;3.37;41.33;99770.16;7691085;32;37179;-73
2022/03/04 05:45:21;;;;;;;42.05;22.87;;;;;;;3.20;42.09;99779.91;7687240;32;40052;-72
2022/03/04 05:49:38;;;;;;;46.97;23.85;;;;;;;3.43;41.90;99783.78;7683067;32;40839;-73
2022/03/04 05:53:54;;;;;;;44.13;23.58;;;;;;;3.29;41.72;99792.00;7683239;32;38880;-72
2022/03/04 05:58:10;;;;;;;42.42;24.20;;;;;;;3.25;42.06;99798.91;7683077;32;36920;-72
2022/03/04 06:02:28;;;;;;;46.10;24.30;;;;;;;3.18;41.65;99801.66;7683016;32;39365;-71
2022/03/04 06:06:45;;;;;;;50.22;24.40;;;;;;;3.33;41.58;99787.84;7682945;32;40075;-72
2022/03/04 06:11:11;;;;;;;53.97;24.60;;;;;;;3.20;41.99;99798.75;7682572;32;38616;-72
2022/03/04 06:15:27;;;;;;;55.65;24.77;;;;;;;3.22;41.92;99804.75;7682669;32;37213;-73
2022/03/04 06:19:44;;;;;;;46.10;24.45;;;;;;;3.36;41.14;99811.66;7682551;32;39029;-73
2022/03/04 06:24:00;;;;;;;45.78;23.55;;;;;;;3.36;40.63;99816.19;7682396;32;40074;-73
2022/03/04 06:28:16;;;;;;;41.85;23.00;;;;;;;3.56;40.07;99811.41;7682375;32;37908;-73
2022/03/04 06:32:32;;;;;;;47.90;25.55;;;;;;;3.34;41.72;99827.19;7695418;32;37169;-75
2022/03/04 06:36:48;;;;;;;56.67;26.83;;;;;;;3.37;41.94;99831.34;7711639;32;40443;-74
2022/03/04 06:41:05;;;;;;;42.05;23.35;;;;;;;3.44;41.46;99833.97;7712639;32;39891;-74
2022/03/04 06:45:21;;;;;;;44.28;24.10;;;;;;;3.50;40.91;99841.13;7712404;32;37583;-73
2022/03/04 06:49:38;;;;;;;46.22;24.12;;;;;;;3.65;41.15;99838.09;7712172;32;37467;-73
2022/03/04 06:53:54;;;;;;;45.03;23.80;;;;;;;3.58;41.64;99830.06;7712288;32;39599;-74
2022/03/04 06:58:10;;;;;;;42.00;22.98;;;;;;;3.57;42.19;99839.22;7712110;32;40706;-75
2022/03/04 07:02:26;;;;;;;44.83;24.33;;;;;;;3.63;41.76;99838.31;7712112;32;37930;-75
2022/03/04 07:06:43;;;;;;;52.58;23.77;;;;;;;3.44;42.77;99844.75;7712301;32;37055;-74
2022/03/04 07:10:59;;;;;;;45.33;23.50;;;;;;;3.54;42.60;99850.44;7712199;32;39119;-74
2022/03/04 07:15:15;;;;;;;46.67;23.35;;;;;;;3.80;42.35;99856.59;7712171;32;40586;-73
2022/03/04 07:19:33;;;;;;;51.80;24.52;;;;;;;3.93;42.60;99851.84;7698401;32;37740;-72
2022/03/04 07:23:49;;;;;;;48.35;23.92;;;;;;;3.73;42.97;99848.56;7711596;32;37188;-72
2022/03/04 07:28:06;;;;;;;51.00;23.75;;;;;;;3.80;42.83;99862.78;7711885;32;39401;-73
2022/03/04 07:32:22;;;;;;;48.87;24.37;;;;;;;3.50;43.02;99865.41;7699717;32;40824;-73
2022/03/04 07:36:44;;;;;;;45.12;24.70;;;;;;;3.79;43.17;99873.81;7684905;32;38752;-73
2022/03/04 07:41:00;;;;;;;48.35;26.25;;;;;;;4.13;42.61;99869.66;7685019;32;38031;-72
2022/03/04 07:45:17;;;;;;;52.58;26.33;;;;;;;4.08;42.18;99872.22;7684447;32;39108;-71
2022/03/04 07:49:33;;;;;;;44.42;23.17;;;;;;;4.20;44.22;99881.19;7684371;32;39701;-73
2022/03/04 07:53:49;;;;;;;44.47;24.10;;;;;;;3.98;42.67;99883.53;7685014;32;37897;-73
2022/03/04 07:58:05;;;;;;;55.22;28.05;;;;;;;4.10;42.54;99887.09;7684767;32;37224;-71
2022/03/04 08:02:21;;;;;;;49.83;25.52;;;;;;;4.09;42.63;99898.97;7684886;32;40057;-72
2022/03/04 08:06:39;;;;;;;48.15;26.77;;;;;;;4.41;42.40;99893.34;7684694;32;39938;-73
2022/03/04 08:10:55;;;;;;;43.25;25.65;;;;;;;4.74;41.80;99900.16;7684747;32;37949;-72
2022/03/04 08:15:12;;;;;;;48.40;24.58;;;;;;;4.89;41.56;99897.03;7684940;32;37474;-72
2022/03/04 08:19:29;;;;;;;60.60;28.15;;;;;;;4.66;41.84;99903.22;7684743;32;39338;-72
2022/03/04 08:23:46;;;;;;;49.80;24.65;;;;;;;4.78;42.20;99904.06;7684788;32;39868;-73
2022/03/04 08:28:02;;;;;;;47.53;25.35;;;;;;;4.49;42.29;99911.13;7684631;32;38308;-72
2022/03/04 08:32:22;;;;;;;44.88;24.98;;;;;;;4.72;42.79;99910.37;7696214;32;37257;-72
2022/03/04 08:36:42;;;;;;;58.40;25.55;;;;;;;4.75;42.62;99914.50;7711163;32;39344;-73
2022/03/04 08:40:58;;;;;;;55.00;25.85;;;;;;;4.95;42.03;99920.44;7710956;32;39910;-72
2022/03/04 08:45:15;;;;;;;51.22;24.80;;;;;;;5.11;41.88;99913.53;7685080;32;37875;-72
2022/03/04 08:49:33;;;;;;;51.10;25.98;;;;;;;5.03;42.49;99922.78;7699439;32;38051;-73
2022/03/04 08:53:49;;;;;;;39.05;20.27;;;;;;;4.77;47.33;99926.72;7710881;32;39436;-73
2022/03/04 08:58:05;;;;;;;44.85;22.33;;;;;;;5.38;49.69;99923.88;7710552;32;39889;-73
2022/03/04 09:02:21;;;;;;;41.83;22.35;;;;;;;5.59;51.31;99928.72;7710808;32;38674;-72
2022/03/04 09:06:38;;;;;;;35.53;20.35;;;;;;;6.10;50.32;99926.31;7710866;32;38046;-72
2022/03/04 09:10:54;;;;;;;37.15;19.52;;;;;;;6.18;49.94;99933.25;7709031;32;39440;-74
2022/03/04 09:15:10;;;;;;;37.17;20.58;;;;;;;6.42;49.50;99930.50;7706329;32;39994;-73
2022/03/04 09:19:27;;;;;;;35.63;20.27;;;;;;;6.67;49.40;99925.53;7689089;32;37730;-75
2022/03/04 09:24:04;;;;;;;38.53;22.30;;;;;;;6.60;49.47;99932.19;7707846;32;37352;-72
2022/03/04 09:28:20;;;;;;;36.70;20.83;;;;;;;6.54;49.26;99942.91;7705605;32;40688;-73
2022/03/04 09:32:37;;;;;;;40.22;22.10;;;;;;;6.64;48.46;99936.88;7696677;32;39761;-73
2022/03/04 09:36:53;;;;;;;34.58;20.08;;;;;;;6.98;47.69;99942.34;7696322;32;37697;-73
2022/03/04 09:41:09;;;;;;;37.20;20.05;;;;;;;6.82;46.91;99940.44;7705470;32;38493;-73
2022/03/04 09:45:26;;;;;;;38.55;21.50;;;;;;;7.24;45.99;99945.50;7707401;32;38939;-73
2022/03/04 09:49:42;;;;;;;35.65;20.52;;;;;;;7.22;45.60;99947.66;7706490;32;40840;-72
2022/03/04 09:53:58;;;;;;;37.22;20.20;;;;;;;7.34;45.30;99940.25;7708789;32;37860;-74
2022/03/04 09:58:18;;;;;;;35.80;20.45;;;;;;;7.42;45.18;99939.84;7709585;32;35054;-73
2022/03/04 10:02:34;;;;;;;37.35;19.98;;;;;;;7.44;45.00;99936.88;7709299;32;39231;-73
2022/03/04 10:06:50;;;;;;;33.90;18.55;;;;;;;7.44;44.97;99943.13;7709252;32;39939;-73
2022/03/04 10:11:07;;;;;;;40.42;21.45;;;;;;;7.65;43.48;99940.72;7711417;32;38588;-73
2022/03/04 10:15:26;;;;;;;34.50;20.77;;;;;;;7.26;43.84;99938.78;7712909;32;37320;-74
2022/03/04 10:19:59;;;;;;;46.67;23.33;;;;;;;7.06;43.86;99944.69;7712677;32;39212;-73
2022/03/04 10:24:20;;;;;;;43.65;23.73;;;;;;;7.13;43.56;99944.53;7712896;32;40796;-74
2022/03/04 10:28:36;;;;;;;44.40;25.42;;;;;;;7.37;42.55;99934.34;7712601;32;38028;-73
2022/03/04 10:33:04;;;;;;;43.15;24.27;;;;;;;6.53;44.45;99940.44;7712740;32;37421;-74
2022/03/04 10:37:42;;;;;;;46.60;25.35;;;;;;;5.84;46.25;99943.88;7698943;32;39427;-74
2022/03/04 10:41:58;;;;;;;46.60;26.17;;;;;;;6.15;45.67;99944.56;7712646;32;40865;-74
2022/03/04 10:46:14;;;;;;;52.75;27.42;;;;;;;6.72;43.50;99939.19;7712681;32;37922;-74
2022/03/04 10:50:41;;;;;;;55.92;28.83;;;;;;;6.25;43.27;99931.25;7712625;32;37898;-74
2022/03/04 10:54:57;;;;;;;53.75;28.00;;;;;;;6.04;43.82;99932.72;7712697;32;39137;-74
2022/03/04 10:59:13;;;;;;;53.13;28.75;;;;;;;6.26;44.35;99938.31;7712297;32;40663;-73
2022/03/04 11:03:34;;;;;;;49.55;28.50;;;;;;;6.14;44.57;99938.34;7712213;32;37732;-74
2022/03/04 11:07:51;;;;;;;49.25;26.48;;;;;;;6.41;45.31;99934.25;7712291;32;37548;-74
2022/03/04 11:12:07;;;;;;;49.42;26.70;;;;;;;7.23;44.44;99933.03;7712636;32;39429;-74
2022/03/04 11:16:24;;;;;;;50.92;26.35;;;;;;;6.90;44.50;99935.47;7712234;32;40803;-74
2022/03/04 11:20:42;;;;;;;50.00;25.02;;;;;;;7.17;43.96;99940.25;7712171;32;38735;-74
2022/03/04 11:25:06;;;;;;;50.42;26.67;;;;;;;7.48;43.95;99927.97;7711997;32;37367;-73
2022/03/04 11:29:33;;;;;;;46.42;25.40;;;;;;;7.42;44.41;99926.28;7698694;32;39968;-73
2022/03/04 11:33:54;;;;;;;41.17;24.52;;;;;;;7.77;42.98;99922.44;7711972;32;39975;-73
2022/03/04 11:38:10;;;;;;;49.80;24.80;;;;;;;7.88;43.45;99924.25;7711801;32;38666;-74
2022/03/04 11:42:38;;;;;;;44.38;24.27;;;;;;;7.97;43.70;99926.50;7711936;32;37004;-74
2022/03/04 11:46:58;;;;;;;42.65;23.60;;;;;;;7.92;44.10;99918.28;7711682;32;39365;-74
2022/03/04 11:51:17;;;;;;;39.42;22.60;;;;;;;7.56;46.55;99921.34;7711836;32;39846;-74
2022/03/04 11:55:33;;;;;;;37.80;22.25;;;;;;;7.97;48.34;99916.47;7711621;32;37877;-73
2022/03/04 12:00:01;;;;;;;37.97;21.23;;;;;;;8.74;46.42;99919.28;7711451;32;37270;-74
2022/03/04 12:04:18;;;;;;;38.90;21.37;;;;;;;8.68;45.36;99915.72;7711725;32;41098;-74
2022/03/04 12:08:39;;;;;;;37.50;21.73;;;;;;;8.18;46.71;99930.31;7711692;32;39923;-74
2022/03/04 12:13:16;;;;;;;36.75;21.92;;;;;;;8.70;42.67;99918.97;7711266;32;38661;-75
2022/03/04 12:17:51;;;;;;;41.03;23.20;;;;;;;8.61;41.91;99910.47;7709776;32;38006;-73
2022/03/04 12:22:08;;;;;;;42.70;25.02;;;;;;;8.03;43.00;99926.31;7682915;32;38336;-73
2022/03/04 12:26:31;;;;;;;45.80;26.17;;;;;;;7.94;44.01;99925.13;7684685;32;40122;-73
2022/03/04 12:31:00;;;;;;;;;;;;;;;8.35;42.02;99922.13;7688235;32;38122;-73
2022/03/04 12:35:17;;;;;;;38.78;21.33;;;;;;;8.42;41.16;99917.31;7711066;32;37830;-73
2022/03/04 12:39:37;;;;;;;41.55;23.23;;;;;;;8.15;41.69;99918.06;7711128;32;39241;-74
2022/03/04 12:43:56;;;;;;;36.22;21.20;;;;;;;8.30;41.56;99913.91;7709544;32;40461;-74
2022/03/04 12:48:13;;;;;;;36.65;20.73;;;;;;;8.42;40.20;99906.44;7686136;32;37661;-73
2022/03/04 12:52:29;;;;;;;36.95;19.55;;;;;;;9.45;39.16;99897.34;7670937;32;37157;-74
2022/03/04 12:56:55;;;;;;;32.65;17.30;;;;;;;10.08;36.09;99893.87;7684093;32;39094;-75
2022/03/04 13:01:16;;;;;;;38.25;20.48;;;;;;;9.87;33.99;99890.22;7684076;32;40810;-73
2022/03/04 13:05:46;;;;;;;40.83;22.00;;;;;;;9.67;35.67;99894.47;7688795;32;37057;-74
2022/03/04 13:10:05;;;;;;;40.58;22.50;;;;;;;9.24;37.30;99896.34;7710273;32;38602;-73
2022/03/04 13:14:24;;;;;;;36.80;22.35;;;;;;;9.29;37.96;99899.09;7696572;32;39384;-73
2022/03/04 13:18:40;;;;;;;39.88;23.42;;;;;;;9.30;38.81;99894.50;7691261;32;39420;-73
2022/03/04 13:23:07;;;;;;;39.95;23.80;;;;;;;9.10;41.04;99897.88;7689935;32;37891;-73
2022/03/04 13:27:34;;;;;;;35.00;20.33;;;;;;;9.23;41.98;99889.28;7670542;32;37179;-73
2022/03/04 13:31:51;;;;;;;37.78;21.85;;;;;;;8.78;44.33;99904.94;7699106;32;39383;-73
2022/03/04 13:36:08;;;;;;;37.80;22.55;;;;;;;8.41;46.93;99910.22;7707904;32;37865;-74
2022/03/04 13:40:25;;;;;;;54.47;30.95;;;;;;;8.04;48.60;99910.88;7696225;32;38038;-75
2022/03/04 13:44:56;;;;;;;48.28;26.87;;;;;;;8.19;49.27;99902.06;7710841;32;37260;-73
2022/03/04 13:49:12;;;;;;;40.33;23.73;;;;;;;8.00;50.74;99902.41;7669820;32;39330;-73
2022/03/04 13:53:29;;;;;;;42.42;24.23;;;;;;;8.30;47.92;99892.19;7670973;32;39895;-73
2022/03/04 13:57:45;;;;;;;42.25;24.42;;;;;;;8.91;44.16;99886.56;7683981;32;38679;-73
2022/03/04 14:02:05;;;;;;;41.03;22.60;;;;;;;9.35;42.93;99881.75;7685034;32;38202;-73
2022/03/04 14:06:25;;;;;;;34.80;21.35;;;;;;;9.45;41.82;99874.72;7686400;32;39391;-73
2022/03/04 14:10:43;;;;;;;37.80;22.08;;;;;;;9.45;40.61;99874.72;7682585;32;40743;-73
2022/03/04 14:14:59;;;;;;;39.13;22.40;;;;;;;9.29;40.66;99877.34;7672706;32;40336;-74
2022/03/04 14:19:15;;;;;;;38.03;22.62;;;;;;;9.11;41.72;99875.06;7698105;32;37228;-74
2022/03/04 14:23:37;;;;;;;44.58;24.12;;;;;;;9.84;39.58;99871.69;7685477;32;40033;-74
2022/03/04 14:27:53;;;;;;;41.40;24.12;;;;;;;9.91;38.57;99866.81;7689381;32;40570;-74
2022/03/04 14:32:09;;;;;;;35.25;19.90;;;;;;;9.76;38.48;99868.41;7684592;32;37903;-74
2022/03/04 14:36:26;;;;;;;37.17;21.08;;;;;;;9.10;37.48;99866.03;7659590;32;37390;-74
2022/03/04 14:41:02;;;;;;;36.45;20.60;;;;;;;10.15;37.73;99862.56;7676520;32;39573;-73
2022/03/04 14:45:19;;;;;;;39.10;20.08;;;;;;;9.97;37.29;99860.31;7693106;32;40872;-74
2022/03/04 14:49:35;;;;;;;39.25;21.75;;;;;;;9.94;39.72;99867.09;7703783;32;38588;-74
2022/03/04 14:53:51;;;;;;;36.65;21.20;;;;;;;10.11;38.37;99872.34;7711180;32;38007;-73
2022/03/04 14:58:08;;;;;;;39.20;20.30;;;;;;;10.10;39.02;99869.91;7711819;32;39458;-75
2022/03/04 15:02:24;;;;;;;34.22;20.17;;;;;;;9.20;38.70;99878.91;7700920;32;39990;-75
2022/03/04 15:06:40;;;;;;;38.33;20.73;;;;;;;9.81;37.83;99867.56;7685491;32;37693;-74
2022/03/04 15:10:57;;;;;;;36.03;21.60;;;;;;;10.22;37.29;99870.47;7684562;32;37005;-74
2022/03/04 15:15:17;;;;;;;31.58;20.52;;;;;;;10.42;36.08;99866.22;7692077;32;39899;-73
2022/03/04 15:19:39;;;;;;;37.33;21.08;;;;;;;10.71;35.09;99869.28;7711602;32;40165;-73
2022/03/04 15:23:56;;;;;;;36.47;20.73;;;;;;;10.88;35.03;99874.47;7687721;32;37888;-73
2022/03/04 15:28:27;;;;;;;37.70;20.05;;;;;;;11.43;33.97;99875.56;7687242;32;37265;-73
2022/03/04 15:33:00;;;;;;;35.63;19.98;;;;;;;12.52;31.10;99867.78;7711020;32;39404;-73
2022/03/04 15:37:17;;;;;;;36.08;20.30;;;;;;;13.14;29.43;99866.25;7711333;32;40859;-73
2022/03/04 15:41:37;;;;;;;30.62;18.92;;;;;;;12.92;28.82;99866.69;7711494;32;38775;-74
2022/03/04 15:45:55;;;;;;;38.55;21.10;;;;;;;11.34;31.83;99881.84;7698961;32;37304;-74
2022/03/04 15:50:13;;;;;;;36.33;20.62;;;;;;;10.77;33.75;99892.72;7652691;32;39570;-74
2022/03/04 15:54:30;;;;;;;34.53;20.90;;;;;;;10.22;34.45;99896.91;7657431;32;40792;-74
2022/03/04 15:58:46;;;;;;;33.95;21.45;;;;;;;9.72;35.01;99889.03;7658256;32;38651;-74
2022/03/04 16:03:02;;;;;;;35.65;20.88;;;;;;;8.98;36.15;99887.16;7672610;32;37059;-73
2022/03/04 16:07:19;;;;;;;36.05;20.17;;;;;;;8.95;35.73;99888.50;7682966;32;40070;-73
2022/03/04 16:11:36;;;;;;;39.10;22.37;;;;;;;8.44;36.68;99901.59;7707830;32;39830;-74
2022/03/04 16:15:52;;;;;;;39.40;19.58;;;;;;;7.27;39.08;99909.75;7698043;32;38655;-73
2022/03/04 16:20:09;;;;;;;36.10;21.30;;;;;;;8.12;37.55;99912.31;7684496;32;38000;-73
2022/03/04 16:24:25;;;;;;;37.55;20.98;;;;;;;8.20;37.20;99912.69;7684178;32;40042;-73
2022/03/04 16:28:45;;;;;;;38.03;21.92;;;;;;;8.00;37.46;99916.00;7684494;32;39723;-73
2022/03/04 16:33:01;;;;;;;40.20;21.05;;;;;;;8.01;37.71;99923.03;7684011;32;38492;-74
2022/03/04 16:37:17;;;;;;;34.83;21.35;;;;;;;7.72;38.54;99915.03;7683463;32;37223;-73
2022/03/04 16:41:33;;;;;;;39.17;22.27;;;;;;;7.44;39.07;99923.31;7684363;32;39241;-73
2022/03/04 16:45:50;;;;;;;41.03;22.37;;;;;;;7.21;39.89;99933.28;7695713;32;39864;-73
2022/03/04 16:50:27;;;;;;;36.10;21.60;;;;;;;7.46;39.17;99927.41;7697185;32;177869;-74
2022/03/04 16:54:43;;;;;;;36.70;20.52;;;;;;;7.47;39.29;99923.66;7709699;32;38244;-72
2022/03/04 16:59:01;;;;;;;43.92;24.00;;;;;;;7.41;39.65;99935.47;7710159;32;40083;-73
2022/03/04 17:03:37;;;;;;;47.75;24.77;;;;;;;7.26;40.26;99941.50;7708703;32;40339;-73
2022/03/04 17:07:55;;;;;;;45.28;23.60;;;;;;;7.20;40.44;99938.94;7709975;32;38789;-74
2022/03/04 17:12:12;;;;;;;43.17;23.77;;;;;;;7.02;40.68;99931.84;7710467;32;37046;-73
2022/03/04 17:16:29;;;;;;;47.15;27.15;;;;;;;7.04;40.56;99935.97;7692222;32;39076;-74
2022/03/04 17:20:45;;;;;;;48.20;26.85;;;;;;;6.75;41.10;99937.88;7686349;32;39653;-73
2022/03/04 17:25:02;;;;;;;50.10;27.30;;;;;;;6.73;40.93;99943.56;7709875;32;37885;-73
2022/03/04 17:29:18;;;;;;;45.22;25.60;;;;;;;6.76;40.68;99940.34;7709405;32;37389;-73
2022/03/04 17:33:36;;;;;;;46.65;26.12;;;;;;;6.65;40.59;99949.34;7708632;32;39302;-74
2022/03/04 17:37:52;;;;;;;46.78;24.90;;;;;;;6.55;40.92;99950.00;7683942;32;42097;-73
2022/03/04 17:42:09;;;;;;;44.20;24.45;;;;;;;6.48;41.24;99943.88;7682959;32;38653;-73
2022/03/04 17:46:25;;;;;;;43.47;26.08;;;;;;;6.41;41.37;99947.78;7682599;32;37212;-73
2022/03/04 17:50:41;;;;;;;51.03;25.40;;;;;;;6.03;42.64;99947.28;7675315;32;39065;-73
2022/03/04 17:54:57;;;;;;;47.22;26.77;;;;;;;6.16;42.49;99951.62;7680812;32;40546;-74
2022/03/04 17:59:13;;;;;;;48.53;26.55;;;;;;;6.22;42.37;99950.66;7681357;32;38520;-73
2022/03/04 18:03:35;;;;;;;46.00;27.55;;;;;;;6.17;42.62;99953.25;7682839;32;37407;-73
2022/03/04 18:07:51;;;;;;;47.67;28.17;;;;;;;6.29;42.52;99956.75;7691186;32;39104;-73
2022/03/04 18:12:07;;;;;;;56.28;30.17;;;;;;;6.07;43.03;99958.47;7709346;32;39704;-73
2022/03/04 18:16:24;;;;;;;48.28;27.00;;;;;;;6.05;42.91;99969.53;7691207;32;37966;-73
2022/03/04 18:20:40;;;;;;;45.88;26.95;;;;;;;5.86;43.32;99976.91;7687560;32;37503;-74
2022/03/04 18:24:56;;;;;;;49.20;27.48;;;;;;;5.87;43.14;99981.28;7700634;32;39376;-74
2022/03/04 18:29:12;;;;;;;43.63;24.95;;;;;;;5.69;43.71;99984.09;7681289;32;39990;-73
2022/03/04 18:33:28;;;;;;;43.30;25.62;;;;;;;6.02;43.00;99983.56;7659047;32;40229;-73
2022/03/04 18:37:44;;;;;;;46.55;26.15;;;;;;;5.76;43.93;99982.94;7658618;32;37375;-73
2022/03/04 18:42:01;;;;;;;47.67;25.62;;;;;;;5.69;44.22;99982.25;7659574;32;39072;-74
2022/03/04 18:46:21;;;;;;;48.35;26.52;;;;;;;5.89;43.48;99987.28;7659108;32;40620;-73
2022/03/04 18:50:39;;;;;;;42.13;25.05;;;;;;;5.75;43.91;99984.00;7650998;32;38810;-72
2022/03/04 18:54:55;;;;;;;51.75;25.37;;;;;;;5.89;43.80;99995.41;7659137;32;37015;-73
2022/03/04 18:59:11;;;;;;;44.78;25.83;;;;;;;5.80;44.02;99997.62;7683779;32;39095;-74
2022/03/04 19:03:33;;;;;;;43.15;24.08;;;;;;;5.48;45.25;99996.31;7694074;32;39610;-73
2022/03/04 19:07:50;;;;;;;83.93;44.17;;;;;;;5.31;45.70;100001.56;7684333;32;38156;-73
2022/03/04 19:12:06;;;;;;;70.32;39.42;;;;;;;5.36;45.19;99999.00;7685043;32;37244;-74
2022/03/04 19:16:22;;;;;;;45.90;27.10;;;;;;;5.43;44.84;100007.81;7685508;32;39245;-74
2022/03/04 19:20:39;;;;;;;48.92;25.52;;;;;;;5.41;44.94;100009.94;7684446;32;39819;-74
2022/03/04 19:24:55;;;;;;;47.72;26.77;;;;;;;5.34;45.59;100015.44;7683619;32;37697;-75
2022/03/04 19:29:11;;;;;;;45.25;25.88;;;;;;;5.48;44.87;100013.34;7684196;32;36953;-74
2022/03/04 19:33:27;;;;;;;52.88;24.87;;;;;;;5.30;45.30;100016.97;7685183;32;39992;-73
2022/03/04 19:37:44;;;;;;;42.83;24.23;;;;;;;5.20;46.25;100019.41;7685052;32;39858;-73
2022/03/04 19:42:02;;;;;;;43.03;24.12;;;;;;;5.14;46.47;100031.13;7686856;32;38042;-74
2022/03/04 19:46:19;;;;;;;41.63;23.98;;;;;;;5.17;46.88;100052.31;7677723;32;37263;-74
2022/03/04 19:50:35;;;;;;;44.40;23.40;;;;;;;4.63;48.81;100063.00;7697749;32;39235;-73
2022/03/04 19:54:51;;;;;;;45.10;26.42;;;;;;;4.94;48.75;100064.66;7684522;32;39859;-74
2022/03/04 19:59:08;;;;;;;47.72;27.87;;;;;;;4.90;49.75;100066.19;7685028;32;38113;-73